Time;durP1;ratioP1;P1;durP2;ratioP2;P2;SDS_P1;SDS_P2;PMS_P1;PMS_P2;Temp;Humidity;BMP_temperature;BMP_pressure;BME280_temperature;BME280_humidity;BME280_pressure;Samples;Min_cycle;Max_cycle;Signal;HPM_P1;HPM_P2
2023/06/08 00:00:50;;;;;;;;;;;;;;;15.87;56.96;100933.50;5055173;28;1163;-61
2023/06/08 00:03:18;;;;;;;;;;;;;;;17.18;56.67;100931.75;5044085;28;1134;-61
2023/06/08 00:05:47;;;;;;;;;;;;;;;16.57;57.83;100930.53;5041708;28;1128;-61
2023/06/08 00:08:13;;;;;;;;;;;;;;;16.18;57.85;100925.44;5044554;28;1201;-62
2023/06/08 00:10:45;;;;;;;;;;;;;;;16.01;57.35;100926.44;5055736;28;1235;-62
2023/06/08 00:13:10;;;;;;;;;;;;;;;15.86;57.18;100924.41;5055860;28;1906;-61
2023/06/08 00:15:36;;;;;;;;;;;;;;;15.83;56.70;100932.38;5042373;28;1019;-61
2023/06/08 00:18:02;;;;;;;;;;;;;;;15.78;56.45;100924.06;5055783;28;1021;-60
2023/06/08 00:20:28;;;;;;;;;;;;;;;15.64;56.38;100924.56;5054964;28;1104;-60
2023/06/08 00:22:54;;;;;;;;;;;;;;;15.62;56.45;100921.22;5047156;28;1267;-60
2023/06/08 00:25:20;;;;;;;;;;;;;;;15.57;55.92;100918.44;5049210;28;1079;-61
2023/06/08 00:27:45;;;;;;;;;;;;;;;15.55;56.40;100920.63;5036066;28;1136;-61
2023/06/08 00:30:13;;;;;;;;;;;;;;;16.84;56.99;100915.75;5037717;28;1120;-61
2023/06/08 00:32:39;;;;;;;;;;;;;;;16.83;57.23;100917.69;5055836;28;1918;-62
2023/06/08 00:35:05;;;;;;;;;;;;;;;16.26;57.99;100913.94;5055723;28;1119;-62
2023/06/08 00:37:31;;;;;;;;;;;;;;;16.05;57.71;100902.88;5047365;28;850;-62
2023/06/08 00:39:59;;;;;;;;;;;;;;;15.94;57.03;100906.66;5050694;28;1060;-62
2023/06/08 00:42:25;;;;;;;;;;;;;;;15.84;56.70;100912.09;5055314;28;1119;-62
2023/06/08 00:44:50;;;;;;;;;;;;;;;15.74;56.61;100907.34;5055783;28;1093;-62
2023/06/08 00:47:16;;;;;;;;;;;;;;;15.69;56.45;100902.63;5055568;28;1256;-61
2023/06/08 00:49:42;;;;;;;;;;;;;;;15.64;56.28;100907.25;5035541;28;1091;-62
2023/06/08 00:52:07;;;;;;;;;;;;;;;15.86;56.88;100910.72;5039241;28;1979;-61
2023/06/08 00:54:34;;;;;;;;;;;;;;;17.18;56.65;100912.53;5036859;28;1021;-62
2023/06/08 00:57:03;;;;;;;;;;;;;;;16.55;57.70;100911.59;5041713;28;1084;-61
2023/06/08 00:59:29;;;;;;;;;;;;;;;16.19;57.72;100905.13;5059354;28;1047;-62
2023/06/08 01:01:58;;;;;;;;;;;;;;;15.98;57.51;100902.28;5031805;28;1296;-61
2023/06/08 01:04:25;;;;;;;;;;;;;;;15.89;56.83;100909.38;5037180;28;1180;-63
2023/06/08 01:06:54;;;;;;;;;;;;;;;15.81;56.73;100909.84;5059155;28;1154;-64
2023/06/08 01:09:23;;;;;;;;;;;;;;;15.70;56.68;100900.75;5041632;28;1254;-64
2023/06/08 01:11:49;;;;;;;;;;;;;;;15.65;56.25;100912.47;5040744;28;1196;-64
2023/06/08 01:14:17;;;;;;;;;;;;;;;15.56;56.47;100906.66;5053801;28;1981;-63
2023/06/08 01:16:49;;;;;;;;;;;;;;;15.50;56.39;100905.00;5050645;28;1080;-66
2023/06/08 01:19:17;;;;;;;;;;;;;;;16.79;57.16;100915.75;5041075;28;1079;-63
2023/06/08 01:21:43;;;;;;;;;;;;;;;16.65;57.53;100904.44;5040984;28;1080;-64
2023/06/08 01:24:13;;;;;;;;;;;;;;;16.21;57.84;100895.53;5040544;28;1126;-65
2023/06/08 01:26:42;;;;;;;;;;;;;;;16.00;57.34;100902.03;5028545;28;859;-64
2023/06/08 01:29:13;;;;;;;;;;;;;;;15.87;57.12;100903.34;5040683;28;1120;-64
2023/06/08 01:31:38;;;;;;;;;;;;;;;15.76;56.91;100894.19;5058638;28;1095;-61
2023/06/08 01:34:05;;;;;;;;;;;;;;;15.69;56.53;100894.41;5058177;28;1976;-61
2023/06/08 01:36:50;;;;;;;;;;;;;;;15.57;56.31;100896.50;5040948;28;1093;-61
2023/06/08 01:39:28;;;;;;;;;;;;;;;15.50;56.25;100894.03;5030822;28;914;-61
2023/06/08 01:41:55;;;;;;;;;;;;;;;16.37;57.39;100910.16;5025262;28;1180;-61
2023/06/08 01:44:20;;;;;;;;;;;;;;;17.05;56.74;100900.97;5040468;28;1108;-61
2023/06/08 01:46:52;;;;;;;;;;;;;;;16.33;57.71;100895.31;5040408;28;1174;-61
2023/06/08 01:49:18;;;;;;;;;;;;;;;16.06;57.39;100899.03;5039786;28;1145;-61
2023/06/08 01:51:45;;;;;;;;;;;;;;;15.92;57.23;100903.34;5022637;28;1103;-61
2023/06/08 01:54:11;;;;;;;;;;;;;;;15.84;56.73;100895.63;5032067;28;1917;-61
2023/06/08 01:56:36;;;;;;;;;;;;;;;15.68;56.64;100895.53;5057779;28;1182;-61
2023/06/08 01:59:02;;;;;;;;;;;;;;;15.64;56.53;100897.13;5040282;28;1369;-61
2023/06/08 02:01:29;;;;;;;;;;;;;;;15.55;56.61;100904.19;5038733;28;1123;-61
2023/06/08 02:03:54;;;;;;;;;;;;;;;15.50;56.08;100895.94;5057432;28;1183;-61
2023/06/08 02:06:20;;;;;;;;;;;;;;;15.46;56.03;100898.38;5058074;28;1008;-61
2023/06/08 02:08:46;;;;;;;;;;;;;;;15.54;56.54;100894.31;5058507;28;1219;-61
2023/06/08 02:11:12;;;;;;;;;;;;;;;16.88;57.04;100895.75;5034616;28;1040;-61
2023/06/08 02:13:41;;;;;;;;;;;;;;;16.72;57.40;100886.63;5041479;28;1906;-61
2023/06/08 02:16:06;;;;;;;;;;;;;;;16.22;57.72;100891.69;5026459;28;1331;-61
2023/06/08 02:18:35;;;;;;;;;;;;;;;16.01;57.21;100884.47;5057875;28;1120;-61
2023/06/08 02:21:02;;;;;;;;;;;;;;;15.87;57.22;100882.22;5057369;28;1044;-62
2023/06/08 02:23:28;;;;;;;;;;;;;;;15.78;56.72;100880.22;5057718;28;1148;-61
2023/06/08 02:25:54;;;;;;;;;;;;;;;15.71;56.75;100881.28;5057269;28;1048;-62
2023/06/08 02:28:20;;;;;;;;;;;;;;;15.63;56.55;100883.69;5044450;28;1168;-62
2023/06/08 02:30:46;;;;;;;;;;;;;;;15.66;56.94;100894.94;5057504;28;1202;-62
2023/06/08 02:33:12;;;;;;;;;;;;;;;17.02;56.92;100887.78;5057585;28;1909;-62
2023/06/08 02:35:37;;;;;;;;;;;;;;;16.60;57.48;100895.09;5039926;28;1615;-62
2023/06/08 02:38:03;;;;;;;;;;;;;;;16.20;57.81;100898.53;5038936;28;1127;-63
2023/06/08 02:40:29;;;;;;;;;;;;;;;16.00;57.29;100886.38;5044118;28;961;-63
2023/06/08 02:42:56;;;;;;;;;;;;;;;15.87;56.96;100892.38;5057095;28;1132;-63
2023/06/08 02:45:23;;;;;;;;;;;;;;;15.77;56.83;100892.25;5039102;28;1391;-64
2023/06/08 02:47:49;;;;;;;;;;;;;;;15.69;56.42;100899.88;5035125;28;1435;-62
2023/06/08 02:50:14;;;;;;;;;;;;;;;15.59;56.51;100904.50;5035297;28;1076;-62
2023/06/08 02:52:40;;;;;;;;;;;;;;;15.52;56.45;100904.72;5022072;28;1901;-63
2023/06/08 02:55:06;;;;;;;;;;;;;;;15.51;56.03;100905.81;5015879;28;1203;-63
2023/06/08 02:57:32;;;;;;;;;;;;;;;16.76;57.17;100914.38;5030325;28;1347;-63
2023/06/08 03:00:01;;;;;;;;;;;;;;;17.02;56.80;100911.69;5035746;28;1115;-63
2023/06/08 03:02:36;;;;;;;;;;;;;;;16.31;57.72;100916.69;5034057;28;1288;-63
2023/06/08 03:05:03;;;;;;;;;;;;;;;16.07;57.53;100911.69;5035670;28;1138;-63
2023/06/08 03:07:36;;;;;;;;;;;;;;;15.94;57.09;100920.38;5036646;28;1148;-61
2023/06/08 03:10:04;;;;;;;;;;;;;;;15.83;56.86;100915.91;5035494;28;1159;-60
2023/06/08 03:12:30;;;;;;;;;;;;;;;15.78;56.30;100913.09;5035277;28;1902;-62
2023/06/08 03:14:56;;;;;;;;;;;;;;;15.67;56.59;100918.53;5034881;28;1198;-60
2023/06/08 03:17:27;;;;;;;;;;;;;;;15.59;56.29;100916.28;5022168;28;1214;-62
2023/06/08 03:19:53;;;;;;;;;;;;;;;15.90;57.08;100919.25;5035321;28;1287;-61
2023/06/08 03:22:24;;;;;;;;;;;;;;;17.22;56.73;100914.47;5035172;28;1209;-61
2023/06/08 03:25:03;;;;;;;;;;;;;;;16.50;57.68;100919.78;5035425;28;1250;-61
2023/06/08 03:27:29;;;;;;;;;;;;;;;16.15;57.78;100915.00;5028471;28;1369;-60
2023/06/08 03:29:57;;;;;;;;;;;;;;;16.00;57.07;100916.56;5015429;28;1342;-57
2023/06/08 03:32:30;;;;;;;;;;;;;;;15.90;57.02;100913.75;5035050;28;1902;-58
2023/06/08 03:34:56;;;;;;;;;;;;;;;15.79;56.51;100909.28;5035109;28;1180;-58
2023/06/08 03:37:22;;;;;;;;;;;;;;;15.75;56.50;100903.50;5036400;28;1031;-57
2023/06/08 03:39:48;;;;;;;;;;;;;;;15.68;56.31;100908.38;5020845;28;1902;-59
2023/06/08 03:42:14;;;;;;;;;;;;;;;15.64;56.27;100913.59;5022046;28;1068;-59
2023/06/08 03:44:41;;;;;;;;;;;;;;;16.32;57.23;100918.34;5035030;28;1285;-58
2023/06/08 03:47:09;;;;;;;;;;;;;;;16.87;57.20;100924.28;5035802;28;1231;-58
2023/06/08 03:49:37;;;;;;;;;;;;;;;16.25;57.62;100928.75;5038252;28;1277;-57
2023/06/08 03:52:04;;;;;;;;;;;;;;;15.99;57.93;100931.38;5048121;28;1975;-54
2023/06/08 03:54:30;;;;;;;;;;;;;;;15.95;57.37;100927.50;5044449;28;1123;-60
2023/06/08 03:56:56;;;;;;;;;;;;;;;15.87;57.05;100930.75;5022080;28;1116;-56
2023/06/08 03:59:21;;;;;;;;;;;;;;;15.79;56.54;100929.31;5038245;28;1136;-58
2023/06/08 04:01:47;;;;;;;;;;;;;;;15.70;56.79;100933.63;5038447;28;1150;-60
2023/06/08 04:04:14;;;;;;;;;;;;;;;15.69;56.51;100932.78;5037894;28;1339;-55
2023/06/08 04:06:40;;;;;;;;;;;;;;;15.63;56.40;100928.38;5038053;28;1500;-56
2023/06/08 04:09:08;;;;;;;;;;;;;;;15.63;56.08;100931.13;5021969;28;1197;-59
2023/06/08 04:11:34;;;;;;;;;;;;;;;16.86;57.11;100930.06;5056120;28;1137;-60
2023/06/08 04:14:00;;;;;;;;;;;;;;;16.89;57.14;100929.53;5025049;28;1971;-56
2023/06/08 04:16:26;;;;;;;;;;;;;;;16.35;57.76;100933.47;5029519;28;1309;-56
2023/06/08 04:18:53;;;;;;;;;;;;;;;16.13;57.63;100933.63;5018263;28;1183;-59
2023/06/08 04:21:25;;;;;;;;;;;;;;;16.01;57.40;100923.69;5027201;28;1448;-59
2023/06/08 04:23:52;;;;;;;;;;;;;;;15.90;56.79;100922.00;5037521;28;1693;-56
2023/06/08 04:26:24;;;;;;;;;;;;;;;15.85;56.52;100924.69;5040182;28;1246;-59
2023/06/08 04:28:51;;;;;;;;;;;;;;;15.81;56.57;100920.81;5028886;28;1243;-57
2023/06/08 04:31:20;;;;;;;;;;;;;;;15.75;56.28;100925.41;5042038;28;1319;-57
2023/06/08 04:33:47;;;;;;;;;;;;;;;15.70;56.23;100933.63;5041703;28;1972;-62
2023/06/08 04:36:13;;;;;;;;;;;;;;;15.59;56.22;100930.00;5041665;28;1195;-62
2023/06/08 04:38:41;;;;;;;;;;;;;;;15.56;56.05;100928.59;5041299;28;1333;-62
2023/06/08 04:41:08;;;;;;;;;;;;;;;15.52;55.99;100932.94;5041632;28;1365;-58
2023/06/08 04:43:34;;;;;;;;;;;;;;;15.56;55.76;100930.53;5041466;28;1136;-56
2023/06/08 04:46:12;;;;;;;;;;;;;;;15.99;56.77;100928.63;5041351;28;1216;-51
2023/06/08 04:48:38;;;;;;;;;;;;;;;17.23;56.39;100926.28;5038211;28;1223;-53
2023/06/08 04:51:04;;;;;;;;;;;;;;;16.55;57.50;100925.31;5036602;28;1051;-60
2023/06/08 04:53:33;;;;;;;;;;;;;;;16.17;57.89;100932.00;5027866;28;1912;-57
2023/06/08 04:56:01;;;;;;;;;;;;;;;16.02;57.46;100930.00;5038013;28;1303;-56
2023/06/08 04:58:27;;;;;;;;;;;;;;;17.47;55.51;100931.22;5039414;28;1108;-57
2023/06/08 05:00:53;;;;;;;;;;;;;;;16.41;55.65;100933.22;5039230;28;1226;-57
2023/06/08 05:03:19;;;;;;;;;;;;;;;16.08;53.79;100935.25;5037572;28;1209;-58
2023/06/08 05:05:45;;;;;;;;;;;;;;;16.02;52.48;100941.81;5038999;28;1147;-56
2023/06/08 05:08:11;;;;;;;;;;;;;;;15.88;51.59;100940.63;5039282;28;1036;-57
2023/06/08 05:10:37;;;;;;;;;;;;;;;16.25;52.62;100937.78;5037685;28;1327;-56
2023/06/08 05:13:03;;;;;;;;;;;;;;;16.45;53.55;100941.72;5039202;28;1905;-59
2023/06/08 05:15:30;;;;;;;;;;;;;;;16.19;51.85;100947.09;5034531;28;1491;-58
2023/06/08 05:17:56;;;;;;;;;;;;;;;16.15;50.75;100939.69;5018756;28;1202;-59
2023/06/08 05:20:22;;;;;;;;;;;;;;;17.22;53.33;100946.59;5020196;28;1162;-58
2023/06/08 05:22:48;;;;;;;;;;;;;;;16.49;53.03;100945.59;5038515;28;1051;-57
2023/06/08 05:25:13;;;;;;;;;;;;;;;16.29;51.65;100945.53;5025591;28;1047;-57
2023/06/08 05:27:39;;;;;;;;;;;;;;;16.18;50.44;100947.38;5030786;28;901;-56
2023/06/08 05:30:05;;;;;;;;;;;;;;;16.08;49.92;100942.66;5032288;28;1138;-58
2023/06/08 05:32:30;;;;;;;;;;;;;;;16.52;51.18;100941.47;5038204;28;1901;-57
2023/06/08 05:34:56;;;;;;;;;;;;;;;16.60;52.11;100946.44;5037668;28;1039;-57
2023/06/08 05:37:22;;;;;;;;;;;;;;;16.38;50.95;100943.91;5037819;28;1117;-56
2023/06/08 05:39:47;;;;;;;;;;;;;;;16.24;49.93;100949.88;5037497;28;1143;-56
2023/06/08 05:42:13;;;;;;;;;;;;;;;16.24;49.19;100949.03;5018863;28;1203;-57
2023/06/08 05:44:38;;;;;;;;;;;;;;;16.93;51.31;100933.41;5032237;28;989;-55
2023/06/08 05:47:04;;;;;;;;;;;;;;;16.40;51.10;100942.53;5038158;28;1024;-54
2023/06/08 05:49:30;;;;;;;;;;;;;;;16.36;49.86;100937.88;5057616;28;940;-56
2023/06/08 05:51:55;;;;;;;;;;;;;;;16.24;49.18;100941.66;5057756;28;853;-56
2023/06/08 05:54:21;;;;;;;;;;;;;;;16.25;48.54;100943.28;5058032;28;1906;-57
2023/06/08 05:56:47;;;;;;;;;;;;;;;16.96;50.38;100934.75;5065832;28;1024;-59
2023/06/08 05:59:12;;;;;;;;;;;;;;;16.51;50.40;100948.06;5063596;28;1083;-59
2023/06/08 06:01:38;;;;;;;;;;;;;;;16.42;49.40;100936.78;5057828;28;1119;-59
2023/06/08 06:04:03;;;;;;;;;;;;;;;16.36;48.73;100941.41;5057781;28;1103;-60
2023/06/08 06:06:30;;;;;;;;;;;;;;;16.28;48.37;100941.94;5057606;28;1172;-58
2023/06/08 06:08:55;;;;;;;;;;;;;;;16.86;50.09;100943.78;5058231;28;1056;-55
2023/06/08 06:11:22;;;;;;;;;;;;;;;16.48;49.84;100935.72;5057677;28;1184;-60
2023/06/08 06:13:47;;;;;;;;;;;;;;;16.36;49.45;100940.59;5057501;28;1902;-51
2023/06/08 06:16:13;;;;;;;;;;;;;;;16.30;48.73;100926.03;5057654;28;856;-58
2023/06/08 06:18:38;;;;;;;;;;;;;;;16.30;48.04;100926.03;5057344;28;1210;-57
2023/06/08 06:21:04;;;;;;;;;;;;;;;16.21;48.20;100927.63;5051693;28;1203;-53
2023/06/08 06:23:29;;;;;;;;;;;;;;;16.75;48.94;100931.94;5045908;28;1274;-55
2023/06/08 06:25:57;;;;;;;;;;;;;;;16.63;49.54;100929.44;5029909;28;1408;-57
2023/06/08 06:28:23;;;;;;;;;;;;;;;16.45;49.29;100925.25;5045201;28;1215;-55
2023/06/08 06:30:48;;;;;;;;;;;;;;;16.31;48.76;100927.66;5028563;28;1192;-59
2023/06/08 06:33:14;;;;;;;;;;;;;;;17.15;49.71;100935.06;5046582;28;1902;-54
2023/06/08 06:35:39;;;;;;;;;;;;;;;16.68;49.79;100934.94;5048105;28;1179;-57
2023/06/08 06:38:05;;;;;;;;;;;;;;;16.49;49.21;100929.13;5047727;28;1279;-58
2023/06/08 06:40:30;;;;;;;;;;;;;;;16.43;48.55;100925.53;5044786;28;1220;-62
2023/06/08 06:42:56;;;;;;;;;;;;;;;16.42;48.19;100923.91;5050151;28;1208;-59
2023/06/08 06:45:23;;;;;;;;;;;;;;;16.39;48.30;100929.09;5038915;28;1233;-56
2023/06/08 06:47:49;;;;;;;;;;;;;;;16.32;47.70;100929.31;5056304;28;1074;-59
2023/06/08 06:50:14;;;;;;;;;;;;;;;16.25;47.84;100920.53;5057334;28;1051;-60
2023/06/08 06:52:40;;;;;;;;;;;;;;;16.22;47.84;100926.56;5056466;28;1980;-57
2023/06/08 06:55:06;;;;;;;;;;;;;;;17.01;49.02;100927.38;5048713;28;1151;-58
2023/06/08 06:57:32;;;;;;;;;;;;;;;16.54;49.38;100936.56;5047005;28;1224;-56
2023/06/08 07:00:07;;;;;;;;;;;;;;;16.43;48.81;100925.53;5053594;28;1183;-56
2023/06/08 07:02:33;;;;;;;;;;;;;;;16.32;48.46;100936.75;5056168;28;1016;-58
2023/06/08 07:05:00;;;;;;;;;;;;;;;16.31;48.07;100933.16;5056256;28;1044;-59
2023/06/08 07:07:28;;;;;;;;;;;;;;;16.37;47.69;100931.28;5056515;28;1088;-57
2023/06/08 07:09:53;;;;;;;;;;;;;;;17.30;48.88;100935.06;5056654;28;1060;-51
2023/06/08 07:12:19;;;;;;;;;;;;;;;16.64;49.67;100925.59;5056947;28;1898;-50
2023/06/08 07:14:44;;;;;;;;;;;;;;;16.50;49.25;100924.47;5056063;28;1036;-51
2023/06/08 07:17:11;;;;;;;;;;;;;;;16.46;48.40;100931.59;5056568;28;1032;-51
2023/06/08 07:19:39;;;;;;;;;;;;;;;16.42;48.17;100934.88;5056528;28;1122;-58
2023/06/08 07:22:05;;;;;;;;;;;;;;;17.03;49.34;100929.84;5056290;28;1040;-57
2023/06/08 07:24:31;;;;;;;;;;;;;;;16.64;49.50;100936.59;5056017;28;1131;-52
2023/06/08 07:26:56;;;;;;;;;;;;;;;16.55;48.49;100936.28;5056491;28;1021;-57
2023/06/08 07:29:22;;;;;;;;;;;;;;;16.50;48.23;100941.75;5055712;28;882;-57
2023/06/08 07:31:48;;;;;;;;;;;;;;;16.43;47.79;100941.19;5056494;28;1143;-56
2023/06/08 07:34:13;;;;;;;;;;;;;;;16.39;47.59;100945.56;5056049;28;1994;-55
2023/06/08 07:36:39;;;;;;;;;;;;;;;16.34;47.29;100945.53;5056282;28;1187;-55
2023/06/08 07:39:04;;;;;;;;;;;;;;;17.35;48.28;100942.47;5056537;28;1036;-55
2023/06/08 07:41:30;;;;;;;;;;;;;;;16.71;49.07;100952.81;5025681;28;1143;-56
2023/06/08 07:43:56;;;;;;;;;;;;;;;16.57;48.67;100942.31;5050145;28;1167;-55
2023/06/08 07:46:22;;;;;;;;;;;;;;;16.50;48.20;100954.66;5047180;28;1009;-56
2023/06/08 07:48:47;;;;;;;;;;;;;;;16.41;47.73;100955.19;5055729;28;1258;-54
2023/06/08 07:51:14;;;;;;;;;;;;;;;16.34;47.53;100943.63;5044881;28;1215;-54
2023/06/08 07:53:39;;;;;;;;;;;;;;;17.31;48.58;100955.97;5044015;28;1913;-58
2023/06/08 07:56:05;;;;;;;;;;;;;;;16.87;49.31;100959.16;5043976;28;1220;-57
2023/06/08 07:58:31;;;;;;;;;;;;;;;16.58;48.85;100951.41;5047284;28;1076;-57
2023/06/08 08:00:57;;;;;;;;;;;;;;;16.60;48.09;100951.94;5057818;28;1025;-59
2023/06/08 08:03:22;;;;;;;;;;;;;;;16.53;47.83;100941.22;5060220;28;1040;-58
2023/06/08 08:05:51;;;;;;;;;;;;;;;16.42;47.63;100939.53;5059297;28;1111;-58
2023/06/08 08:08:16;;;;;;;;;;;;;;;16.37;47.46;100945.81;5059806;28;1099;-57
2023/06/08 08:10:42;;;;;;;;;;;;;;;16.41;47.03;100949.69;5060174;28;1199;-59
2023/06/08 08:13:08;;;;;;;;;;;;;;;17.14;48.45;100945.25;5059814;28;1973;-58
2023/06/08 08:15:34;;;;;;;;;;;;;;;16.66;48.76;100931.66;5059550;28;1055;-57
2023/06/08 08:18:00;;;;;;;;;;;;;;;16.51;48.42;100934.31;5059635;28;930;-54
2023/06/08 08:20:25;;;;;;;;;;;;;;;16.50;47.83;100940.94;5059512;28;1036;-57
2023/06/08 08:22:51;;;;;;;;;;;;;;;16.46;47.69;100946.13;5051314;28;1226;-55
2023/06/08 08:25:17;;;;;;;;;;;;;;;16.31;47.70;100932.34;5054018;28;1320;-55
2023/06/08 08:27:42;;;;;;;;;;;;;;;17.27;48.38;100949.38;5050522;28;1160;-59
2023/06/08 08:30:08;;;;;;;;;;;;;;;16.76;48.96;100939.91;5056336;28;900;-56
2023/06/08 08:32:33;;;;;;;;;;;;;;;16.64;48.46;100939.31;5058104;28;1926;-53
2023/06/08 08:34:59;;;;;;;;;;;;;;;16.52;47.88;100927.75;5058136;28;1051;-56
2023/06/08 08:37:25;;;;;;;;;;;;;;;16.47;47.59;100925.00;5057562;28;1172;-56
2023/06/08 08:39:50;;;;;;;;;;;;;;;16.39;47.25;100918.94;5040640;28;966;-55
2023/06/08 08:42:18;;;;;;;;;;;;;;;16.40;47.15;100928.00;5045562;28;859;-55
2023/06/08 08:44:44;;;;;;;;;;;;;;;16.39;47.14;100924.41;5058633;28;1163;-56
2023/06/08 08:47:10;;;;;;;;;;;;;;;16.21;47.34;100920.22;5041090;28;1137;-56
2023/06/08 08:49:40;;;;;;;;;;;;;;;17.22;48.45;100919.13;5059474;28;1055;-56
2023/06/08 08:52:08;;;;;;;;;;;;;;;16.71;48.48;100920.66;5059247;28;1119;-56
2023/06/08 08:54:34;;;;;;;;;;;;;;;16.60;48.49;100925.31;5033111;28;978;-56
2023/06/08 08:57:00;;;;;;;;;;;;;;;16.58;47.58;100919.28;5054182;28;1091;-56
2023/06/08 08:59:31;;;;;;;;;;;;;;;16.53;47.70;100912.94;5058692;28;1060;-53
2023/06/08 09:01:57;;;;;;;;;;;;;;;17.14;48.91;100923.25;5059047;28;1437;-57
2023/06/08 09:04:23;;;;;;;;;;;;;;;16.72;48.99;100910.53;5049870;28;1151;-56
2023/06/08 09:06:49;;;;;;;;;;;;;;;16.60;48.48;100919.81;5041346;28;1092;-56
2023/06/08 09:09:16;;;;;;;;;;;;;;;16.56;48.18;100926.13;5041082;28;1210;-57
2023/06/08 09:12:08;;;;;;;;;;;;;;;16.64;47.23;100911.88;5058286;28;1183;-57
2023/06/08 09:14:33;;;;;;;;;;;;;;;16.48;47.56;100915.66;5056629;28;1981;-47
2023/06/08 09:16:59;;;;;;;;;;;;;;;16.54;46.85;100912.66;5057825;28;1075;-56
2023/06/08 09:19:25;;;;;;;;;;;;;;;16.42;47.13;100906.59;5045022;28;1116;-56
2023/06/08 09:21:51;;;;;;;;;;;;;;;16.55;47.78;100905.25;5058456;28;1035;-51
2023/06/08 09:24:19;;;;;;;;;;;;;;;17.12;48.64;100902.66;5058520;28;1188;-59
2023/06/08 09:26:45;;;;;;;;;;;;;;;16.72;48.72;100903.09;5058600;28;1120;-56
2023/06/08 09:29:12;;;;;;;;;;;;;;;16.60;48.43;100905.28;5057433;28;1138;-58
2023/06/08 09:31:39;;;;;;;;;;;;;;;16.58;47.83;100911.03;5052596;28;1250;-59
2023/06/08 09:34:05;;;;;;;;;;;;;;;16.55;47.60;100911.59;5031407;28;1902;-59
2023/06/08 09:36:35;;;;;;;;;;;;;;;16.39;47.44;100913.44;5047488;28;1179;-63
2023/06/08 09:39:03;;;;;;;;;;;;;;;16.47;47.15;100908.53;5049388;28;1250;-59
2023/06/08 09:41:29;;;;;;;;;;;;;;;16.90;47.82;100895.47;5049722;28;1099;-58
2023/06/08 09:43:54;;;;;;;;;;;;;;;17.13;48.96;100901.56;5057913;28;1087;-55
2023/06/08 09:46:35;;;;;;;;;;;;;;;16.80;48.71;100896.25;5052527;28;1206;-57
2023/06/08 09:49:02;;;;;;;;;;;;;;;16.66;48.25;100898.72;5048048;28;1253;-55
2023/06/08 09:51:27;;;;;;;;;;;;;;;16.56;47.92;100904.16;5048135;28;1234;-55
2023/06/08 09:53:56;;;;;;;;;;;;;;;16.62;47.19;100902.25;5040306;28;1913;-55
2023/06/08 09:56:25;;;;;;;;;;;;;;;16.50;47.15;100897.84;5044627;28;1016;-60
2023/06/08 09:58:52;;;;;;;;;;;;;;;16.51;46.97;100890.41;5058312;28;1021;-61
2023/06/08 10:01:18;;;;;;;;;;;;;;;16.42;47.06;100896.44;5044886;28;1021;-57
2023/06/08 10:03:47;;;;;;;;;;;;;;;16.47;46.72;100887.41;5040426;28;1156;-56
2023/06/08 10:06:13;;;;;;;;;;;;;;;16.39;46.84;100891.47;5057786;28;991;-59
2023/06/08 10:08:38;;;;;;;;;;;;;;;16.36;46.62;100897.50;5036798;28;1053;-63
2023/06/08 10:11:04;;;;;;;;;;;;;;;16.67;47.15;100880.31;5030232;28;1345;-62
2023/06/08 10:13:30;;;;;;;;;;;;;;;17.40;48.56;100869.13;5029916;28;1993;-61
2023/06/08 10:15:55;;;;;;;;;;;;;;;16.82;48.92;100877.59;5046083;28;1235;-61
2023/06/08 10:18:21;;;;;;;;;;;;;;;16.73;48.23;100870.97;5029757;28;1302;-58
2023/06/08 10:20:46;;;;;;;;;;;;;;;16.65;47.87;100871.50;5047388;28;1223;-60
2023/06/08 10:23:12;;;;;;;;;;;;;;;17.39;49.05;100874.88;5050868;28;1214;-56
2023/06/08 10:25:38;;;;;;;;;;;;;;;16.87;49.22;100874.84;5039486;28;1136;-55
2023/06/08 10:28:04;;;;;;;;;;;;;;;16.74;48.50;100872.63;5057310;28;1160;-57
2023/06/08 10:30:33;;;;;;;;;;;;;;;16.72;47.92;100872.91;5057391;28;1230;-57
2023/06/08 10:33:19;;;;;;;;;;;;;;;16.68;47.62;100881.97;5057160;28;1902;-55
2023/06/08 10:36:05;;;;;;;;;;;;;;;16.52;47.45;100867.38;5049126;28;1227;-55
2023/06/08 10:38:31;;;;;;;;;;;;;;;16.47;46.99;100870.94;5047717;28;1168;-52
2023/06/08 10:40:56;;;;;;;;;;;;;;;16.48;47.00;100855.28;5028356;28;1220;-56
2023/06/08 10:43:22;;;;;;;;;;;;;;;16.39;46.71;100864.03;5045753;28;998;-55
2023/06/08 10:45:48;;;;;;;;;;;;;;;16.45;46.59;100853.06;5054544;28;1088;-53
2023/06/08 10:48:15;;;;;;;;;;;;;;;16.48;46.69;100860.75;5029694;28;1241;-54
2023/06/08 10:50:44;;;;;;;;;;;;;;;16.47;46.29;100842.66;5045816;28;1192;-55
2023/06/08 10:53:10;;;;;;;;;;;;;;;16.42;46.39;100847.06;5056370;28;1958;-52
2023/06/08 10:55:35;;;;;;;;;;;;;;;16.23;46.85;100845.91;5038470;28;1203;-58
2023/06/08 10:58:06;;;;;;;;;;;;;;;16.42;46.73;100840.72;5056701;28;1080;-52
2023/06/08 11:00:32;;;;;;;;;;;;;;;16.92;48.01;100849.34;5056809;28;1053;-53
2023/06/08 11:03:01;;;;;;;;;;;;;;;16.66;47.70;100851.19;5055649;28;1040;-55
2023/06/08 11:05:33;;;;;;;;;;;;;;;16.53;47.43;100833.34;5043874;28;1114;-55
2023/06/08 11:08:00;;;;;;;;;;;;;;;16.51;47.09;100846.50;5055418;28;1117;-52
2023/06/08 11:10:25;;;;;;;;;;;;;;;16.48;47.11;100852.53;5038240;28;1321;-57
2023/06/08 11:12:51;;;;;;;;;;;;;;;16.37;46.77;100847.03;5056298;28;1992;-53
2023/06/08 11:15:19;;;;;;;;;;;;;;;17.30;48.04;100833.38;5056171;28;1056;-54
2023/06/08 11:17:57;;;;;;;;;;;;;;;16.79;48.52;100836.94;5056037;28;1376;-56
2023/06/08 11:20:26;;;;;;;;;;;;;;;16.65;48.04;100833.91;5044399;28;1119;-54
2023/06/08 11:22:52;;;;;;;;;;;;;;;16.63;47.71;100836.09;5056121;28;1348;-55
2023/06/08 11:25:19;;;;;;;;;;;;;;;16.53;47.43;100828.66;5055817;28;1273;-55
2023/06/08 11:27:44;;;;;;;;;;;;;;;16.44;47.11;100827.56;5056127;28;1226;-56
2023/06/08 11:30:24;;;;;;;;;;;;;;;16.36;47.06;100825.34;5037836;28;1282;-55
2023/06/08 11:32:50;;;;;;;;;;;;;;;16.83;47.42;100835.31;5053342;28;2043;-55
2023/06/08 11:35:20;;;;;;;;;;;;;;;17.03;48.10;100829.00;5055696;28;1266;-55
2023/06/08 11:37:56;;;;;;;;;;;;;;;16.74;48.00;100836.94;5056150;28;1242;-56
2023/06/08 11:40:21;;;;;;;;;;;;;;;16.57;47.73;100834.44;5056066;28;1293;-56
2023/06/08 11:42:47;;;;;;;;;;;;;;;16.51;47.58;100825.38;5055794;28;1202;-55
2023/06/08 11:45:13;;;;;;;;;;;;;;;16.86;47.83;100839.44;5055834;28;1231;-55
2023/06/08 11:47:41;;;;;;;;;;;;;;;17.04;48.47;100830.66;5055752;28;1201;-54
2023/06/08 11:50:07;;;;;;;;;;;;;;;16.76;48.41;100835.56;5055980;28;1238;-54
2023/06/08 11:52:33;;;;;;;;;;;;;;;16.68;47.83;100838.03;5048852;28;1906;-51
2023/06/08 11:55:01;;;;;;;;;;;;;;;16.55;47.88;100831.13;5054640;28;1239;-52
2023/06/08 11:57:47;;;;;;;;;;;;;;;16.60;47.12;100820.16;5056250;28;1059;-55
2023/06/08 12:00:16;;;;;;;;;;;;;;;16.50;47.09;100825.66;5044638;28;967;-53
2023/06/08 12:02:45;;;;;;;;;;;;;;;16.53;46.58;100825.91;5058533;28;1449;-56
2023/06/08 12:05:17;;;;;;;;;;;;;;;16.52;46.74;100820.69;5048750;28;1056;-56
2023/06/08 12:07:54;;;;;;;;;;;;;;;16.48;46.62;100817.69;5037717;28;1057;-55
2023/06/08 12:10:19;;;;;;;;;;;;;;;17.19;47.55;100818.00;5047545;28;1199;-56
2023/06/08 12:12:46;;;;;;;;;;;;;;;16.90;48.39;100818.56;5056224;28;1985;-55
2023/06/08 12:15:16;;;;;;;;;;;;;;;16.68;48.02;100822.38;5056174;28;1148;-53
2023/06/08 12:17:42;;;;;;;;;;;;;;;16.65;47.34;100811.94;5049015;28;1046;-53
2023/06/08 12:20:08;;;;;;;;;;;;;;;16.62;46.96;100819.88;5043842;28;1014;-53
2023/06/08 12:22:34;;;;;;;;;;;;;;;17.22;48.39;100814.69;5047250;28;1259;-52
2023/06/08 12:24:59;;;;;;;;;;;;;;;16.81;48.60;100820.19;5055600;28;1269;-55
2023/06/08 12:27:29;;;;;;;;;;;;;;;16.70;47.96;100822.09;5055751;28;1195;-56
2023/06/08 12:29:56;;;;;;;;;;;;;;;16.64;47.39;100815.78;5055895;28;1127;-56
2023/06/08 12:32:23;;;;;;;;;;;;;;;16.65;47.09;100822.94;5044770;28;1906;-55
2023/06/08 12:34:48;;;;;;;;;;;;;;;16.66;46.98;100815.50;5055917;28;1072;-56
2023/06/08 12:37:14;;;;;;;;;;;;;;;16.53;46.96;100814.13;5054481;28;1313;-54
2023/06/08 12:39:39;;;;;;;;;;;;;;;16.55;46.55;100800.94;5055905;28;1044;-51
2023/06/08 12:42:06;;;;;;;;;;;;;;;16.47;46.43;100804.25;5055759;28;1097;-55
2023/06/08 12:44:32;;;;;;;;;;;;;;;16.47;46.50;100799.56;5055578;28;1033;-50
2023/06/08 12:46:58;;;;;;;;;;;;;;;16.45;46.38;100803.69;5057896;28;1132;-55